Time;durP1;ratioP1;P1;durP2;ratioP2;P2;SDS_P1;SDS_P2;PMS_P1;PMS_P2;Temp;Humidity;BMP_temperature;BMP_pressure;BME280_temperature;BME280_humidity;BME280_pressure;Samples;Min_cycle;Max_cycle;Signal;HPM_P1;HPM_P2
2022/02/19 00:01:37;;;;;;;6.43;1.53;;;7.40;1.00;;;;;;5095729;28;20221;-80
2022/02/19 00:04:05;;;;;;;9.10;1.93;;;7.30;1.00;;;;;;5096988;28;20233;-79
2022/02/19 00:06:33;;;;;;;10.90;2.10;;;7.30;1.00;;;;;;5095912;28;20634;-80
2022/02/19 00:09:00;;;;;;;10.77;2.00;;;7.30;1.00;;;;;;5097004;28;20213;-80
2022/02/19 00:11:27;;;;;;;9.23;1.60;;;7.30;1.00;;;;;;5088655;28;20226;-79
2022/02/19 00:13:54;;;;;;;7.10;2.33;;;7.30;1.00;;;;;;5080589;28;20649;-79
2022/02/19 00:16:23;;;;;;;7.60;2.13;;;7.40;1.00;;;;;;5096538;28;20194;-80
2022/02/19 00:18:50;;;;;;;10.33;2.10;;;7.20;1.00;;;;;;5098159;28;20292;-80
2022/02/19 00:21:18;;;;;;;10.10;2.03;;;7.20;1.00;;;;;;5095171;28;20271;-79
2022/02/19 00:23:45;;;;;;;13.47;1.97;;;7.20;1.00;;;;;;5098392;28;20627;-80
2022/02/19 00:26:11;;;;;;;7.90;2.43;;;7.20;1.00;;;;;;5098308;28;20256;-79
2022/02/19 00:28:38;;;;;;;13.57;2.67;;;7.20;1.00;;;;;;5097965;28;20201;-79
2022/02/19 00:31:05;;;;;;;6.37;2.00;;;7.20;1.00;;;;;;5086107;28;20734;-78
2022/02/19 00:33:34;;;;;;;8.13;1.90;;;7.20;1.00;;;;;;5078408;28;20185;-79
2022/02/19 00:36:00;;;;;;;9.17;2.63;;;7.10;30.20;;;;;;5077291;28;20206;-79
2022/02/19 00:38:28;;;;;;;7.70;1.80;;;7.20;1.00;;;;;;5077369;28;20210;-81
2022/02/19 00:40:55;;;;;;;8.50;2.07;;;7.20;1.00;;;;;;5075362;28;20226;-79
2022/02/19 00:43:22;;;;;;;9.47;2.20;;;7.20;1.00;;;;;;5075359;28;20246;-79
2022/02/19 00:45:50;;;;;;;9.03;2.10;;;7.30;1.00;;;;;;5075539;28;20289;-80
2022/02/19 00:48:17;;;;;;;7.73;2.20;;;7.40;1.00;;;;;;5077251;28;20210;-79
2022/02/19 00:50:46;;;;;;;13.07;3.03;;;7.20;17.90;;;;;;5076126;28;20253;-79
2022/02/19 00:53:12;;;;;;;13.40;2.40;;;7.20;1.00;;;;;;5076081;28;20289;-80
2022/02/19 00:55:39;;;;;;;8.43;2.60;;;7.20;1.00;;;;;;5079988;28;20285;-80
2022/02/19 00:58:07;;;;;;;10.00;2.03;;;7.10;42.10;;;;;;5097604;28;20244;-78
2022/02/19 01:00:35;;;;;;;9.53;1.97;;;7.20;1.00;;;;;;5097607;28;20265;-79
2022/02/19 01:03:02;;;;;;;10.37;2.60;;;7.20;1.00;;;;;;5097378;28;20316;-78
2022/02/19 01:05:29;;;;;;;12.87;3.03;;;7.20;1.00;;;;;;5097953;28;20216;-79
2022/02/19 01:07:57;;;;;;;9.03;2.53;;;7.10;1.00;;;;;;5096845;28;20194;-78
2022/02/19 01:10:24;;;;;;;5.77;1.70;;;7.00;1.00;;;;;;5087842;28;20561;-78
2022/02/19 01:12:51;;;;;;;7.47;1.97;;;7.00;1.00;;;;;;5096788;28;20308;-79
2022/02/19 01:15:17;;;;;;;13.17;2.27;;;7.00;1.00;;;;;;5095091;28;20233;-79
2022/02/19 01:17:44;;;;;;;13.80;2.47;;;7.00;27.20;;;;;;5097074;28;20211;-79
2022/02/19 01:20:12;;;;;;;11.33;1.80;;;7.00;1.00;;;;;;5095820;28;20320;-79
2022/02/19 01:22:41;;;;;;;5.43;2.00;;;7.00;1.00;;;;;;5095288;28;20871;-79
2022/02/19 01:25:11;;;;;;;11.27;1.80;;;7.00;1.00;;;;;;5097180;28;20678;-79
2022/02/19 01:27:38;;;;;;;6.43;1.60;;;7.00;19.50;;;;;;5096638;28;20225;-80
2022/02/19 01:30:07;;;;;;;11.13;2.70;;;6.90;31.00;;;;;;5086871;28;20285;-79
2022/02/19 01:32:34;;;;;;;5.90;1.73;;;6.90;18.40;;;;;;5074874;28;20234;-80
2022/02/19 01:35:01;;;;;;;4.87;2.03;;;7.00;24.00;;;;;;5075887;28;20210;-78
2022/02/19 01:37:28;;;;;;;5.13;1.63;;;6.90;39.50;;;;;;5074680;28;20254;-79
2022/02/19 01:39:55;;;;;;;6.40;1.87;;;6.80;93.70;;;;;;5076488;28;20205;-79
2022/02/19 01:42:23;;;;;;;4.90;2.00;;;6.90;15.80;;;;;;5074974;28;20313;-79
2022/02/19 01:44:53;;;;;;;4.73;1.50;;;6.90;1.00;;;;;;5074090;28;20306;-80
2022/02/19 01:47:20;;;;;;;9.80;2.17;;;6.90;1.00;;;;;;5074048;28;20203;-78
2022/02/19 01:49:47;;;;;;;7.00;1.30;;;6.90;1.00;;;;;;5074593;28;20206;-79
2022/02/19 01:52:17;;;;;;;8.67;1.57;;;6.80;1.00;;;;;;5074675;28;20233;-79
2022/02/19 01:54:47;;;;;;;8.80;1.27;;;6.80;1.00;;;;;;5076555;28;20659;-79
2022/02/19 01:57:14;;;;;;;8.70;1.73;;;6.80;1.00;;;;;;5076640;28;20198;-80
2022/02/19 01:59:42;;;;;;;8.27;1.53;;;6.70;1.00;;;;;;5074736;28;20210;-78
2022/02/19 02:02:10;;;;;;;5.47;1.50;;;6.70;31.30;;;;;;5091381;28;20225;-79
2022/02/19 02:04:37;;;;;;;4.80;1.30;;;6.70;1.00;;;;;;5095803;28;20222;-78
2022/02/19 02:07:05;;;;;;;5.17;0.90;;;6.70;1.00;;;;;;5095900;28;20201;-79
2022/02/19 02:09:32;;;;;;;4.73;1.40;;;6.70;1.00;;;;;;5087393;28;20233;-79
2022/02/19 02:11:59;;;;;;;6.93;1.37;;;6.60;1.00;;;;;;5095578;28;20221;-79
2022/02/19 02:14:26;;;;;;;6.83;1.40;;;6.60;15.70;;;;;;5095539;28;20572;-80
2022/02/19 02:16:54;;;;;;;7.40;1.40;;;6.80;1.00;;;;;;5095205;28;20213;-80
2022/02/19 02:19:21;;;;;;;6.60;1.63;;;6.70;1.00;;;;;;5094855;28;20206;-79
2022/02/19 02:21:49;;;;;;;8.40;1.77;;;6.70;46.40;;;;;;5092424;28;20630;-80
2022/02/19 02:24:17;;;;;;;8.90;1.60;;;6.60;99.90;;;;;;5095110;28;20214;-80
2022/02/19 02:26:46;;;;;;;6.10;1.23;;;6.60;99.90;;;;;;5093445;28;20296;-79
2022/02/19 02:29:14;;;;;;;9.83;2.40;;;6.60;99.90;;;;;;5094341;28;20275;-80
2022/02/19 02:31:41;;;;;;;5.53;1.40;;;6.70;99.90;;;;;;5093454;28;20225;-80
2022/02/19 02:34:08;;;;;;;12.47;1.57;;;6.70;99.90;;;;;;5095451;28;20701;-78
2022/02/19 02:36:35;;;;;;;4.07;1.10;;;6.60;99.90;;;;;;5093176;28;20745;-79
2022/02/19 02:39:03;;;;;;;7.37;1.43;;;6.60;99.90;;;;;;5094502;28;20296;-79
2022/02/19 02:41:30;;;;;;;3.87;1.00;;;6.60;99.90;;;;;;5072712;28;20222;-79
2022/02/19 02:43:57;;;;;;;6.30;1.70;;;6.60;99.90;;;;;;5080254;28;20304;-79
2022/02/19 02:46:24;;;;;;;4.17;1.60;;;6.60;99.90;;;;;;5072908;28;20281;-80
2022/02/19 02:48:51;;;;;;;7.70;1.50;;;6.60;99.90;;;;;;5074393;28;20786;-79
2022/02/19 02:51:18;;;;;;;7.83;1.80;;;6.60;99.90;;;;;;5073019;28;20222;-78
2022/02/19 02:53:45;;;;;;;3.67;1.00;;;6.60;99.90;;;;;;5076162;28;20217;-78
2022/02/19 02:56:13;;;;;;;5.67;1.60;;;6.50;99.90;;;;;;5093417;28;20284;-80
2022/02/19 02:58:40;;;;;;;7.50;1.70;;;6.60;99.90;;;;;;5093415;28;20209;-78
2022/02/19 03:01:07;;;;;;;7.63;1.73;;;6.50;99.90;;;;;;5090527;28;20700;-80
2022/02/19 03:03:34;;;;;;;7.13;1.30;;;6.20;1.00;;;;;;5092346;28;20313;-80
2022/02/19 03:06:03;;;;;;;5.10;1.50;;;6.10;1.00;;;;;;5094867;28;20202;-80
2022/02/19 03:08:30;;;;;;;3.17;1.33;;;6.00;1.00;;;;;;5098359;28;20597;-78
2022/02/19 03:10:57;;;;;;;8.57;1.50;;;6.00;81.40;;;;;;5109691;28;20216;-78
2022/02/19 03:13:25;;;;;;;9.80;2.43;;;5.80;1.00;;;;;;5101627;28;20206;-78
2022/02/19 03:15:52;;;;;;;6.60;1.50;;;5.70;1.00;;;;;;5098866;28;20759;-79
2022/02/19 03:18:19;;;;;;;4.97;1.40;;;5.70;99.90;;;;;;5093911;28;20224;-78
2022/02/19 03:20:47;;;;;;;7.63;1.30;;;5.80;99.90;;;;;;5108677;28;20283;-79
2022/02/19 03:23:14;;;;;;;5.57;1.70;;;5.60;1.00;;;;;;5094200;28;20262;-78
2022/02/19 03:25:41;;;;;;;7.47;1.60;;;5.60;1.00;;;;;;5095059;28;20201;-76
2022/02/19 03:28:08;;;;;;;8.13;1.60;;;5.60;1.00;;;;;;5094187;28;20248;-77
2022/02/19 03:30:36;;;;;;;9.57;1.83;;;5.50;1.00;;;;;;5102787;28;20244;-78
2022/02/19 03:33:03;;;;;;;3.87;1.20;;;5.50;1.00;;;;;;5090990;28;20288;-78
2022/02/19 03:35:30;;;;;;;7.03;2.17;;;5.50;1.00;;;;;;5089625;28;20661;-78
2022/02/19 03:37:57;;;;;;;8.10;1.40;;;5.50;1.00;;;;;;5101244;28;20281;-78
2022/02/19 03:40:23;;;;;;;7.87;1.33;;;5.40;1.00;;;;;;5093833;28;20202;-77
2022/02/19 03:42:50;;;;;;;8.70;1.70;;;5.40;99.90;;;;;;5095789;28;20224;-78
2022/02/19 03:45:17;;;;;;;6.77;1.90;;;5.10;1.00;;;;;;5096369;28;20240;-78
2022/02/19 03:47:45;;;;;;;5.70;2.40;;;5.20;1.00;;;;;;5098123;28;20542;-77
2022/02/19 03:50:14;;;;;;;9.10;1.93;;;5.30;99.90;;;;;;5086798;28;20194;-78
2022/02/19 03:52:42;;;;;;;7.87;1.73;;;5.40;1.00;;;;;;5092682;28;20217;-79
2022/02/19 03:55:09;;;;;;;6.43;1.60;;;5.70;1.00;;;;;;5105220;28;20284;-78
2022/02/19 03:57:36;;;;;;;10.20;1.73;;;5.60;1.00;;;;;;5089929;28;20286;-77
2022/02/19 04:00:05;;;;;;;6.13;1.70;;;5.60;1.00;;;;;;5101801;28;20280;-79
2022/02/19 04:02:32;;;;;;;5.30;1.50;;;5.60;1.00;;;;;;5084477;28;20253;-79
2022/02/19 04:05:00;;;;;;;11.67;1.93;;;5.60;1.00;;;;;;5092061;28;20218;-78
2022/02/19 04:07:27;;;;;;;6.83;1.80;;;5.50;1.00;;;;;;5100613;28;20241;-77
2022/02/19 04:09:54;;;;;;;5.37;1.60;;;5.40;93.80;;;;;;5092624;28;20234;-79
2022/02/19 04:12:22;;;;;;;5.70;1.40;;;5.50;53.90;;;;;;5092455;28;20245;-78
2022/02/19 04:14:49;;;;;;;5.73;1.63;;;5.40;99.90;;;;;;5096060;28;20307;-78
2022/02/19 04:17:16;;;;;;;8.20;1.90;;;5.40;99.90;;;;;;5108823;28;20292;-77
2022/02/19 04:19:43;;;;;;;8.03;2.13;;;5.30;1.00;;;;;;5096015;28;20217;-77
2022/02/19 04:22:11;;;;;;;5.47;1.27;;;5.10;1.00;;;;;;5095762;28;20239;-78
2022/02/19 04:24:38;;;;;;;5.60;1.37;;;4.90;1.00;;;;;;5108607;28;20213;-79
2022/02/19 04:27:05;;;;;;;4.50;1.20;;;4.90;99.90;;;;;;5109689;28;20228;-78
2022/02/19 04:29:32;;;;;;;8.23;1.87;;;4.80;1.00;;;;;;5099613;28;20271;-78
2022/02/19 04:31:59;;;;;;;9.23;2.13;;;4.60;1.00;;;;;;5093683;28;20232;-78
2022/02/19 04:34:26;;;;;;;2.40;1.10;;;4.50;1.00;;;;;;5105145;28;20251;-78
2022/02/19 04:36:53;;;;;;;4.73;1.70;;;4.40;1.00;;;;;;5104882;28;20737;-78
2022/02/19 04:39:24;;;;;;;1.63;1.17;;;4.40;1.00;;;;;;5096355;28;20193;-77
2022/02/19 04:41:51;;;;;;;11.23;2.33;;;4.40;1.00;;;;;;5092193;28;20261;-79
2022/02/19 04:44:19;;;;;;;11.10;1.70;;;4.40;99.90;;;;;;5093083;28;20284;-78
2022/02/19 04:46:45;;;;;;;5.17;1.50;;;4.40;1.00;;;;;;5107327;28;20251;-78
2022/02/19 04:49:12;;;;;;;5.77;1.57;;;4.50;1.00;;;;;;5096780;28;20248;-78
2022/02/19 04:51:40;;;;;;;4.57;1.20;;;4.50;1.00;;;;;;5103909;28;20244;-78
2022/02/19 04:54:07;;;;;;;6.70;1.80;;;4.50;99.90;;;;;;5094074;28;20863;-78
2022/02/19 04:56:36;;;;;;;5.80;2.13;;;4.40;1.00;;;;;;5106190;28;20622;-78
2022/02/19 04:59:03;;;;;;;5.53;1.57;;;4.20;1.00;;;;;;5100740;28;20203;-78
2022/02/19 05:01:30;;;;;;;5.73;1.60;;;4.20;99.90;;;;;;5106985;28;20218;-77
2022/02/19 05:03:57;;;;;;;8.13;1.60;;;4.20;99.90;;;;;;5082473;28;20210;-78
2022/02/19 05:06:24;;;;;;;4.27;1.83;;;4.20;99.90;;;;;;5086968;28;20287;-78
2022/02/19 05:08:51;;;;;;;6.00;1.77;;;4.30;99.90;;;;;;5103857;28;20280;-78
2022/02/19 05:11:18;;;;;;;10.13;2.13;;;4.40;99.90;;;;;;5093723;28;20782;-78
2022/02/19 05:13:46;;;;;;;4.83;1.43;;;4.40;1.00;;;;;;5103897;28;20243;-78
2022/02/19 05:16:13;;;;;;;6.03;1.43;;;4.50;1.00;;;;;;5101615;28;20571;-77
2022/02/19 05:18:40;;;;;;;10.37;2.00;;;4.60;1.00;;;;;;5106535;28;20246;-77
2022/02/19 05:21:07;;;;;;;12.00;2.37;;;4.50;1.00;;;;;;5109257;28;20623;-78
2022/02/19 05:23:35;;;;;;;5.53;1.40;;;4.50;99.90;;;;;;5098914;28;20225;-78
2022/02/19 05:26:02;;;;;;;4.00;1.27;;;4.50;99.90;;;;;;5106242;28;20242;-77
2022/02/19 05:28:29;;;;;;;8.37;1.57;;;4.40;99.90;;;;;;5106179;28;20653;-76
2022/02/19 05:30:58;;;;;;;5.03;1.57;;;4.40;1.00;;;;;;5095586;28;20229;-77
2022/02/19 05:33:25;;;;;;;7.37;1.80;;;4.40;1.00;;;;;;5102477;28;20182;-78
2022/02/19 05:35:51;;;;;;;4.53;1.47;;;4.40;1.00;;;;;;5102348;28;20201;-77
2022/02/19 05:38:18;;;;;;;5.93;1.53;;;4.30;1.00;;;;;;5109840;28;20262;-77
2022/02/19 05:40:45;;;;;;;3.70;1.37;;;4.40;1.00;;;;;;5108824;28;20201;-78
2022/02/19 05:43:12;;;;;;;9.03;1.80;;;4.30;99.90;;;;;;5108736;28;20279;-78
2022/02/19 05:45:41;;;;;;;6.43;2.10;;;4.30;1.00;;;;;;5108102;28;20248;-77
2022/02/19 05:48:09;;;;;;;7.87;2.43;;;4.30;99.90;;;;;;5101031;28;20205;-78
2022/02/19 05:50:37;;;;;;;5.27;1.70;;;4.40;1.00;;;;;;5101788;28;20233;-78
2022/02/19 05:53:04;;;;;;;7.43;1.47;;;4.40;1.00;;;;;;5109184;28;20331;-78
2022/02/19 05:55:31;;;;;;;7.20;1.67;;;4.40;99.90;;;;;;5076614;28;20194;-78
2022/02/19 05:57:58;;;;;;;3.10;1.10;;;4.50;1.00;;;;;;5106003;28;20271;-78
2022/02/19 06:00:25;;;;;;;6.07;1.87;;;4.70;1.00;;;;;;5112500;28;20216;-77
2022/02/19 06:02:53;;;;;;;9.87;2.20;;;4.80;1.00;;;;;;5109271;28;20312;-78
2022/02/19 06:05:21;;;;;;;7.00;1.30;;;4.90;1.00;;;;;;5094087;28;20232;-78
2022/02/19 06:07:48;;;;;;;4.77;1.90;;;5.00;99.90;;;;;;5078957;28;20201;-78
2022/02/19 06:10:15;;;;;;;4.33;1.17;;;5.00;99.90;;;;;;5092662;28;20198;-77
2022/02/19 06:12:43;;;;;;;8.27;1.83;;;5.10;1.00;;;;;;5074330;28;20222;-79
2022/02/19 06:15:10;;;;;;;6.37;1.40;;;5.00;1.00;;;;;;5072868;28;20598;-79
2022/02/19 06:17:37;;;;;;;8.53;2.27;;;5.30;99.90;;;;;;5073947;28;20232;-79
2022/02/19 06:20:05;;;;;;;8.23;1.70;;;5.40;1.00;;;;;;5074360;28;20228;-79
2022/02/19 06:22:33;;;;;;;4.47;1.57;;;5.40;1.00;;;;;;5074360;28;20643;-78
2022/02/19 06:25:00;;;;;;;7.83;1.47;;;5.40;17.30;;;;;;5094782;28;20275;-78
2022/02/19 06:27:27;;;;;;;3.77;1.20;;;5.40;1.00;;;;;;5094668;28;20201;-79
2022/02/19 06:29:54;;;;;;;8.13;1.70;;;5.40;1.00;;;;;;5093048;28;20232;-78
2022/02/19 06:32:21;;;;;;;7.77;1.63;;;5.30;99.90;;;;;;5093768;28;20237;-78
2022/02/19 06:34:48;;;;;;;6.73;1.40;;;5.30;21.00;;;;;;5091941;28;20730;-78
2022/02/19 06:37:18;;;;;;;6.13;1.30;;;5.30;1.00;;;;;;5072382;28;20202;-78
2022/02/19 06:39:47;;;;;;;9.87;1.50;;;5.30;99.90;;;;;;5074669;28;20202;-79
2022/02/19 06:42:14;;;;;;;8.03;1.50;;;5.20;66.00;;;;;;5073907;28;20284;-78
2022/02/19 06:44:41;;;;;;;9.53;2.20;;;5.20;99.90;;;;;;5074053;28;20260;-78
2022/02/19 06:47:08;;;;;;;10.77;1.27;;;5.20;99.90;;;;;;5072931;28;20297;-80
2022/02/19 06:49:36;;;;;;;3.63;1.20;;;5.40;1.00;;;;;;5073319;28;20727;-78
2022/02/19 06:52:03;;;;;;;10.53;2.23;;;5.40;1.00;;;;;;5084929;28;20236;-79
2022/02/19 06:54:30;;;;;;;5.17;1.20;;;5.40;1.00;;;;;;5093920;28;20229;-78
2022/02/19 06:56:59;;;;;;;6.33;1.67;;;5.30;1.00;;;;;;5096404;28;20201;-78
2022/02/19 06:59:26;;;;;;;6.53;1.40;;;5.30;1.00;;;;;;5109760;28;20296;-78
2022/02/19 07:01:52;;;;;;;4.80;1.17;;;5.20;1.00;;;;;;5085878;28;20301;-78
2022/02/19 07:04:19;;;;;;;7.90;1.57;;;5.30;99.90;;;;;;5097625;28;20848;-78
2022/02/19 07:06:46;;;;;;;9.40;1.80;;;5.30;1.00;;;;;;5100640;28;20201;-79
2022/02/19 07:09:14;;;;;;;6.77;1.40;;;5.30;1.00;;;;;;5107838;28;20200;-77
2022/02/19 07:11:40;;;;;;;4.60;1.80;;;5.40;1.00;;;;;;5102733;28;20217;-78
2022/02/19 07:14:09;;;;;;;6.37;1.50;;;5.40;99.90;;;;;;5099755;28;20194;-77
2022/02/19 07:16:36;;;;;;;7.90;2.03;;;5.30;1.00;;;;;;5103379;28;20257;-78
2022/02/19 07:19:02;;;;;;;2.93;1.10;;;5.40;99.90;;;;;;5099972;28;20236;-82
2022/02/19 07:21:29;;;;;;;4.13;1.33;;;5.40;99.90;;;;;;5105871;28;20218;-78
2022/02/19 07:23:56;;;;;;;6.93;1.27;;;5.40;99.90;;;;;;5087772;28;20281;-78
2022/02/19 07:26:23;;;;;;;5.90;1.47;;;5.40;99.90;;;;;;5086713;28;20213;-77
2022/02/19 07:28:50;;;;;;;7.97;1.50;;;5.60;1.00;;;;;;5100271;28;20711;-78
2022/02/19 07:31:18;;;;;;;7.90;1.63;;;5.50;99.90;;;;;;5091729;28;20221;-78
2022/02/19 07:33:45;;;;;;;5.43;1.73;;;5.50;40.70;;;;;;5094282;28;20201;-77
2022/02/19 07:36:12;;;;;;;8.70;1.60;;;5.60;1.00;;;;;;5095234;28;20198;-78
2022/02/19 07:38:39;;;;;;;7.23;2.10;;;5.60;1.00;;;;;;5095306;28;20368;-78
2022/02/19 07:41:06;;;;;;;3.77;1.10;;;5.60;1.00;;;;;;5093625;28;20221;-78
2022/02/19 07:43:33;;;;;;;7.80;1.50;;;5.60;1.00;;;;;;5101273;28;20200;-77
2022/02/19 07:46:00;;;;;;;6.60;1.53;;;5.50;1.00;;;;;;5104323;28;20760;-77
2022/02/19 07:48:28;;;;;;;6.87;2.07;;;5.60;1.00;;;;;;5092534;28;20292;-77
2022/02/19 07:59:08;;;;;;;5.57;1.73;;;6.20;1.00;;;;;;5103396;28;20228;-79
2022/02/19 08:01:34;;;;;;;6.80;1.80;;;5.90;1.00;;;;;;5104359;28;20304;-78
2022/02/19 08:04:04;;;;;;;6.97;2.10;;;6.10;1.00;;;;;;5096701;28;20289;-79
2022/02/19 08:06:32;;;;;;;6.27;1.80;;;6.30;1.00;;;;;;5086047;28;20219;-79
2022/02/19 08:08:59;;;;;;;8.10;1.60;;;6.60;1.00;;;;;;5104522;28;20544;-79
2022/02/19 08:11:26;;;;;;;5.17;1.47;;;6.70;1.00;;;;;;5100494;28;20222;-78
2022/02/19 08:13:53;;;;;;;8.07;1.50;;;6.90;1.00;;;;;;5105311;28;20578;-78
2022/02/19 08:16:20;;;;;;;8.27;1.97;;;6.60;1.00;;;;;;5108163;28;20209;-79
2022/02/19 08:18:47;;;;;;;12.43;2.17;;;6.60;1.00;;;;;;5099468;28;20300;-77
2022/02/19 08:21:17;;;;;;;6.90;1.70;;;6.40;44.90;;;;;;5104016;28;20701;-79
2022/02/19 08:23:44;;;;;;;8.30;1.83;;;6.30;1.00;;;;;;5095791;28;20680;-77
2022/02/19 08:26:12;;;;;;;8.83;1.83;;;6.20;99.90;;;;;;5100894;28;20283;-81
2022/02/19 08:28:39;;;;;;;4.83;1.80;;;6.10;99.90;;;;;;5099456;28;20197;-77
2022/02/19 08:31:06;;;;;;;12.47;2.50;;;6.10;99.90;;;;;;5096220;28;20253;-78
2022/02/19 08:33:33;;;;;;;8.40;2.00;;;6.10;99.90;;;;;;5103204;28;20201;-78
2022/02/19 08:36:00;;;;;;;9.50;1.97;;;6.40;99.90;;;;;;5090922;28;20201;-79
2022/02/19 08:38:28;;;;;;;11.07;2.20;;;6.30;99.90;;;;;;5094784;28;20289;-78
2022/02/19 08:40:55;;;;;;;12.60;2.03;;;6.20;99.90;;;;;;5095388;28;20202;-78
2022/02/19 08:43:22;;;;;;;8.80;2.00;;;6.00;99.90;;;;;;5095259;28;20276;-78
2022/02/19 08:45:49;;;;;;;9.87;1.90;;;6.10;1.00;;;;;;5102807;28;20227;-77
2022/02/19 08:48:16;;;;;;;6.67;2.70;;;6.10;1.00;;;;;;5091068;28;20194;-78
2022/02/19 08:50:43;;;;;;;7.50;2.00;;;6.10;99.90;;;;;;5101130;28;20197;-79
2022/02/19 08:53:10;;;;;;;11.07;2.10;;;6.10;99.90;;;;;;5109966;28;20229;-78
2022/02/19 08:55:39;;;;;;;6.70;1.83;;;6.20;99.90;;;;;;5106104;28;20282;-78
2022/02/19 08:58:07;;;;;;;11.73;2.10;;;6.20;99.90;;;;;;5105073;28;20564;-78
2022/02/19 09:00:34;;;;;;;5.83;1.60;;;6.20;99.90;;;;;;5102167;28;20202;-77
2022/02/19 09:03:01;;;;;;;10.90;2.03;;;6.20;99.90;;;;;;5093682;28;20596;-78
2022/02/19 09:05:28;;;;;;;13.03;2.10;;;6.20;99.90;;;;;;5094622;28;20252;-78
2022/02/19 09:07:55;;;;;;;11.67;2.13;;;6.20;99.90;;;;;;5098526;28;20640;-78
2022/02/19 09:10:22;;;;;;;8.50;1.63;;;6.20;99.90;;;;;;5105785;28;20201;-78
2022/02/19 09:12:50;;;;;;;10.83;1.87;;;6.20;99.90;;;;;;5114258;28;20256;-78
2022/02/19 09:15:19;;;;;;;8.93;1.70;;;6.10;99.90;;;;;;5104439;28;20196;-78
2022/02/19 09:17:47;;;;;;;11.07;2.33;;;6.20;99.90;;;;;;5114808;28;20193;-78
2022/02/19 09:20:15;;;;;;;9.03;1.70;;;6.10;99.90;;;;;;5100916;28;20202;-80
2022/02/19 09:22:42;;;;;;;8.07;1.60;;;6.10;99.90;;;;;;5094302;28;20560;-80
2022/02/19 09:25:11;;;;;;;9.17;1.80;;;6.20;99.90;;;;;;5084444;28;20198;-78
2022/02/19 09:27:38;;;;;;;6.23;1.80;;;6.30;99.90;;;;;;5073238;28;20289;-79
2022/02/19 09:30:09;;;;;;;5.90;1.60;;;6.30;99.90;;;;;;5074085;28;20229;-78
2022/02/19 09:32:36;;;;;;;7.90;1.90;;;6.40;99.90;;;;;;5072048;28;20226;-78
2022/02/19 09:35:05;;;;;;;10.87;1.73;;;6.50;99.90;;;;;;5073197;28;20285;-78
2022/02/19 09:37:32;;;;;;;9.00;1.90;;;6.50;99.90;;;;;;5073074;28;20285;-78
2022/02/19 09:39:59;;;;;;;8.03;2.10;;;6.40;99.90;;;;;;5072993;28;20206;-79
2022/02/19 09:42:26;;;;;;;9.07;2.20;;;6.40;99.90;;;;;;5073714;28;20229;-78
2022/02/19 09:44:54;;;;;;;8.93;2.97;;;6.30;99.90;;;;;;5073693;28;20638;-79
2022/02/19 09:47:26;;;;;;;6.13;2.20;;;6.40;99.90;;;;;;5074308;28;20222;-80
2022/02/19 09:49:53;;;;;;;4.43;1.90;;;6.50;99.90;;;;;;5074922;28;20178;-78
2022/02/19 09:52:20;;;;;;;10.00;2.10;;;6.60;1.00;;;;;;5074080;28;20261;-80
2022/02/19 09:54:47;;;;;;;11.33;2.50;;;6.80;99.90;;;;;;5073283;28;20202;-78
2022/02/19 09:57:14;;;;;;;13.00;2.83;;;6.80;99.90;;;;;;5081115;28;20202;-79
2022/02/19 09:59:41;;;;;;;7.13;2.20;;;6.90;99.90;;;;;;5095353;28;20210;-78
2022/02/19 10:02:08;;;;;;;12.60;2.43;;;6.90;99.90;;;;;;5094523;28;20232;-78
2022/02/19 10:04:38;;;;;;;5.47;2.60;;;6.60;99.90;;;;;;5095272;28;20233;-79
2022/02/19 10:07:15;;;;;;;10.23;3.50;;;6.50;99.90;;;;;;5093629;28;20217;-79
2022/02/19 10:09:43;;;;;;;10.63;3.70;;;6.30;99.90;;;;;;5109144;28;20213;-79
2022/02/19 10:12:13;;;;;;;6.57;2.80;;;6.30;1.00;;;;;;5091034;28;20644;-80
2022/02/19 10:14:40;;;;;;;7.43;2.63;;;6.40;1.00;;;;;;5095165;28;20562;-78
2022/02/19 10:17:11;;;;;;;8.80;2.90;;;6.80;99.90;;;;;;5094379;28;20684;-78
2022/02/19 10:19:54;;;;;;;7.10;2.33;;;6.80;99.90;;;;;;5093663;28;20244;-79
2022/02/19 10:22:23;;;;;;;5.93;2.27;;;7.10;99.90;;;;;;5093080;28;20262;-78
2022/02/19 10:24:54;;;;;;;10.20;2.93;;;7.00;48.20;;;;;;5095836;28;20202;-80
2022/02/19 10:27:21;;;;;;;11.63;3.30;;;6.90;99.90;;;;;;5094074;28;20229;-80
2022/02/19 10:29:51;;;;;;;11.03;3.43;;;6.90;99.90;;;;;;5094421;28;20263;-79
2022/02/19 10:32:19;;;;;;;10.53;3.37;;;6.70;27.10;;;;;;5092803;28;20235;-80
2022/02/19 10:35:02;;;;;;;9.00;2.90;;;6.70;83.40;;;;;;5092204;28;20197;-80
2022/02/19 10:37:30;;;;;;;9.33;2.60;;;6.70;1.00;;;;;;5091872;28;20243;-79
2022/02/19 10:39:58;;;;;;;10.40;2.93;;;7.00;1.00;;;;;;5092827;28;20235;-79
2022/02/19 10:42:34;;;;;;;9.77;2.73;;;7.70;36.00;;;;;;5091098;28;20230;-84
2022/02/19 10:45:09;;;;;;;10.93;2.97;;;7.70;1.00;;;;;;5086247;28;20224;-84
2022/02/19 10:47:36;;;;;;;6.33;2.77;;;8.10;1.00;;;;;;5089643;28;20240;-83
2022/02/19 10:50:10;;;;;;;4.53;1.97;;;8.30;1.00;;;;;;5104739;28;20660;-83
2022/02/19 10:52:39;;;;;;;4.00;1.80;;;8.10;1.00;;;;;;5062974;28;20237;-83
2022/02/19 10:55:09;;;;;;;7.47;2.10;;;8.10;1.00;;;;;;5089569;28;20259;-84
2022/02/19 10:57:40;;;;;;;5.20;2.27;;;8.20;1.00;;;;;;5076913;28;20206;-85
2022/02/19 11:00:12;;;;;;;10.17;2.70;;;8.40;1.00;;;;;;5069344;28;20198;-84
2022/02/19 11:02:40;;;;;;;10.37;2.20;;;8.00;1.00;;;;;;5085095;28;20613;-85
2022/02/19 11:05:11;;;;;;;10.30;2.33;;;8.10;1.00;;;;;;5090166;28;20670;-85
2022/02/19 11:07:40;;;;;;;7.17;2.00;;;8.10;99.90;;;;;;5087045;28;20225;-86
2022/02/19 11:10:08;;;;;;;12.70;2.73;;;8.30;99.90;;;;;;5089178;28;20256;-85
2022/02/19 11:12:35;;;;;;;6.83;2.33;;;8.30;1.00;;;;;;5070288;28;20222;-83
2022/02/19 11:15:04;;;;;;;4.27;1.80;;;8.40;1.00;;;;;;5069031;28;20795;-83
2022/02/19 11:17:31;;;;;;;10.90;2.33;;;8.30;1.00;;;;;;5090053;28;20718;-83
2022/02/19 11:20:03;;;;;;;6.87;2.00;;;8.20;99.90;;;;;;5090437;28;20599;-83
2022/02/19 11:22:34;;;;;;;8.83;2.77;;;8.50;99.90;;;;;;5079768;28;20278;-82
2022/02/19 11:25:02;;;;;;;6.80;1.77;;;8.40;99.90;;;;;;5094243;28;20651;-83
2022/02/19 11:27:31;;;;;;;4.47;1.60;;;8.20;99.90;;;;;;5087390;28;20308;-83
2022/02/19 11:30:03;;;;;;;9.90;2.33;;;8.00;1.00;;;;;;5092531;28;20285;-83
2022/02/19 11:32:31;;;;;;;6.60;1.77;;;8.30;99.90;;;;;;5085414;28;20240;-82
2022/02/19 11:34:58;;;;;;;8.23;2.10;;;8.60;99.90;;;;;;5094609;28;20293;-83
2022/02/19 11:37:25;;;;;;;8.63;2.00;;;8.30;99.90;;;;;;5096413;28;20730;-81
2022/02/19 11:40:05;;;;;;;8.30;2.20;;;8.40;99.90;;;;;;5113179;28;20224;-84
2022/02/19 11:42:37;;;;;;;7.80;1.93;;;8.80;99.90;;;;;;5075721;28;20673;-83
2022/02/19 11:45:25;;;;;;;7.13;1.80;;;8.90;99.90;;;;;;5071798;28;20302;-85
2022/02/19 11:47:55;;;;;;;8.13;2.30;;;8.70;99.90;;;;;;5081492;28;20226;-83
2022/02/19 11:50:27;;;;;;;7.77;2.37;;;8.50;99.90;;;;;;5072280;28;20233;-83
2022/02/19 11:53:22;;;;;;;10.10;2.13;;;8.40;99.90;;;;;;5090367;28;20946;-82
2022/02/19 11:55:51;;;;;;;7.37;1.80;;;8.10;99.90;;;;;;5091352;28;20202;-83
2022/02/19 11:58:22;;;;;;;6.50;2.13;;;7.80;99.90;;;;;;5089133;28;20236;-83
2022/02/19 12:00:51;;;;;;;7.33;1.67;;;7.90;99.90;;;;;;5092297;28;20206;-83
2022/02/19 12:03:24;;;;;;;6.93;1.83;;;7.70;99.90;;;;;;5088922;28;20359;-84
2022/02/19 12:06:18;;;;;;;7.23;2.13;;;7.80;99.90;;;;;;5072519;28;20234;-83
2022/02/19 12:09:10;;;;;;;7.10;1.80;;;7.90;99.90;;;;;;5074612;28;20612;-83
2022/02/19 12:14:50;;;;;;;7.33;2.00;;;7.90;99.90;;;;;;5057236;28;20316;-68
2022/02/19 12:17:18;;;;;;;8.23;1.80;;;7.80;99.90;;;;;;5064475;28;20321;-67
2022/02/19 12:19:56;;;;;;;8.23;1.90;;;8.10;99.90;;;;;;5072313;28;20206;-68
2022/02/19 12:22:32;;;;;;;6.37;1.50;;;8.20;99.90;;;;;;5069726;28;20468;-68
2022/02/19 12:25:00;;;;;;;7.53;1.67;;;8.20;99.90;;;;;;5071701;28;20205;-68
2022/02/19 12:27:27;;;;;;;8.47;1.90;;;8.60;1.00;;;;;;5070213;28;20226;-68
2022/02/19 12:30:21;;;;;;;4.13;1.37;;;8.60;1.00;;;;;;5065883;28;20215;-68
2022/02/19 12:32:49;;;;;;;8.40;1.90;;;8.20;23.80;;;;;;5060341;28;20207;-67
2022/02/19 12:35:16;;;;;;;6.67;1.37;;;7.90;99.90;;;;;;5065656;28;20202;-67
2022/02/19 12:37:43;;;;;;;4.70;1.57;;;7.60;99.90;;;;;;5066516;28;20574;-67
2022/02/19 12:40:18;;;;;;;7.90;1.53;;;7.50;99.90;;;;;;5068162;28;20206;-67
2022/02/19 12:42:50;;;;;;;6.47;1.57;;;7.40;99.90;;;;;;5062903;28;20224;-68
2022/02/19 12:45:18;;;;;;;8.13;1.67;;;7.40;99.90;;;;;;5068065;28;20285;-68
2022/02/19 12:47:46;;;;;;;8.43;1.57;;;7.40;99.90;;;;;;5066754;28;20595;-68
2022/02/19 12:50:15;;;;;;;6.90;1.63;;;7.50;99.90;;;;;;5067492;28;20305;-68
2022/02/19 12:52:42;;;;;;;6.47;1.90;;;7.60;99.90;;;;;;5066267;28;20217;-68
2022/02/19 12:55:16;;;;;;;9.27;2.70;;;8.20;99.90;;;;;;5068618;28;20206;-68
2022/02/19 12:57:45;;;;;;;6.73;1.23;;;8.00;99.90;;;;;;5066394;28;20210;-68
2022/02/19 13:00:12;;;;;;;5.73;1.60;;;8.00;99.90;;;;;;5063869;28;20203;-68
2022/02/19 13:02:39;;;;;;;6.27;1.90;;;7.80;99.90;;;;;;5066587;28;20202;-69
2022/02/19 13:05:09;;;;;;;8.07;2.00;;;7.80;99.90;;;;;;5061383;28;20198;-70
2022/02/19 13:07:36;;;;;;;6.87;1.90;;;7.70;99.90;;;;;;5068192;28;20245;-70
2022/02/19 13:10:06;;;;;;;8.33;2.10;;;7.70;99.90;;;;;;5066632;28;20202;-68
2022/02/19 13:12:34;;;;;;;5.93;2.10;;;7.70;99.90;;;;;;5067173;28;20679;-68
2022/02/19 13:15:04;;;;;;;8.33;1.70;;;8.10;99.90;;;;;;5068149;28;20207;-68
2022/02/19 13:17:32;;;;;;;4.67;1.30;;;8.00;99.90;;;;;;5066497;28;20293;-68